F.r. Bigelow — WDB8153 — position and weather

sailwx.info

Track history (hours):
 
Tides and Currents Weather Stations Pressure Air Temp Water Temp Dewpoint Dewpoint Depression Visibility Wind Speed Wind Dir Waves Ship Positions

F.r. Bigelow

Owner: Ingram Barge Company LLC, Nashville, TN. More information available from US FCC via Universal Licensing System and Coast Guard Vessel Documentation Center.

Last reported at 2017-Aug-20 07:53 UTC. Time now 2017-Aug-20 11:21 UTC.
Position N 29°57' W 090°10'.

Length 46 m; draft 2.8 m.

Type: Towing. MMSI: 366953890.

Date/timePositionNaut miles runAvg speedWind from/ knotsBaromVisibWave heightAir tempDewpointWater temp
2017-Aug-20 07:53N 29°57' W 090°10'7 4.2
2017-Aug-20 06:11N 29°57' W 090°18'1 5.9
2017-Aug-20 06:00N 29°57' W 090°19'3 5.6
2017-Aug-20 05:30N 29°56' W 090°22'5 5.2
2017-Aug-20 04:34N 29°60' W 090°26'  
2017-Aug-13 05:54N 30°01' W 090°44'2 3.7
2017-Aug-13 05:25N 30°01' W 090°42'2 3.9
2017-Aug-13 05:00N 30°02' W 090°41'3 3.4
2017-Aug-13 04:09N 30°02' W 090°38'1 3.3
2017-Aug-13 03:42N 30°03' W 090°36'2 3.4
2017-Aug-13 03:01N 30°03' W 090°33'0 3.2
2017-Aug-13 03:00N 30°03' W 090°33'  
Track history (hours):
 
Tides and Currents Weather Stations Pressure Air Temp Water Temp Dewpoint Dewpoint Depression Visibility Wind Speed Wind Dir Waves Ship Positions

F.r. Bigelow

Owner: Ingram Barge Company LLC, Nashville, TN. More information available from US FCC via Universal Licensing System and Coast Guard Vessel Documentation Center.

Last reported at 2017-Aug-20 07:53 UTC. Time now 2017-Aug-20 11:21 UTC.
Position N 29°57' W 090°10'.

Length 46 m; draft 2.8 m.

Type: Towing. MMSI: 366953890.

Date/timePositionNaut miles runAvg speedWind from/ knotsBaromVisibWave heightAir tempDewpointWater temp
2017-Aug-20 07:53N 29°57' W 090°10'7 4.2
2017-Aug-20 06:11N 29°57' W 090°18'1 5.9
2017-Aug-20 06:00N 29°57' W 090°19'3 5.6
2017-Aug-20 05:30N 29°56' W 090°22'5 5.2
2017-Aug-20 04:34N 29°60' W 090°26'  
2017-Aug-13 05:54N 30°01' W 090°44'2 3.7
2017-Aug-13 05:25N 30°01' W 090°42'2 3.9
2017-Aug-13 05:00N 30°02' W 090°41'3 3.4
2017-Aug-13 04:09N 30°02' W 090°38'1 3.3
2017-Aug-13 03:42N 30°03' W 090°36'2 3.4
2017-Aug-13 03:01N 30°03' W 090°33'0 3.2
2017-Aug-13 03:00N 30°03' W 090°33'  

Dump ship's entire track history